createdAt,value
2018-07-19T00:01:43.022Z,15.60
2018-07-19T00:04:47.697Z,15.70
2018-07-19T00:07:52.520Z,15.60
2018-07-19T00:10:57.792Z,15.50
2018-07-19T00:14:04.828Z,15.40
2018-07-19T00:17:20.914Z,15.30
2018-07-19T00:20:27.169Z,15.30
2018-07-19T00:23:31.972Z,15.10
2018-07-19T00:26:36.655Z,15.10
2018-07-19T00:29:41.233Z,15.10
2018-07-19T00:32:46.035Z,15.00
2018-07-19T00:35:51.184Z,15.00
2018-07-19T00:38:55.863Z,14.70
2018-07-19T00:42:01.679Z,14.60
2018-07-19T00:45:06.270Z,14.60
2018-07-19T00:48:11.077Z,14.60
2018-07-19T00:51:16.070Z,14.80
2018-07-19T00:54:22.434Z,14.70
2018-07-19T00:57:27.706Z,14.60
2018-07-19T01:00:32.991Z,14.30
2018-07-19T01:03:37.859Z,14.30
2018-07-19T01:06:42.800Z,14.50
2018-07-19T01:09:47.519Z,14.50
2018-07-19T01:12:52.557Z,14.60
2018-07-19T01:15:58.107Z,14.60
2018-07-19T01:19:03.500Z,14.40
2018-07-19T01:22:08.912Z,14.50
2018-07-19T01:25:14.608Z,14.30
2018-07-19T01:28:19.388Z,14.20
2018-07-19T01:31:25.955Z,14.10
2018-07-19T01:34:31.741Z,13.90
2018-07-19T01:37:37.353Z,13.90
2018-07-19T01:40:46.189Z,13.80
2018-07-19T01:44:00.787Z,13.90
2018-07-19T01:47:13.364Z,13.80
2018-07-19T01:50:21.593Z,13.80
2018-07-19T01:53:29.173Z,14.00
2018-07-19T01:56:34.100Z,14.00
2018-07-19T01:59:39.142Z,14.00
2018-07-19T02:02:44.372Z,13.90
2018-07-19T02:05:49.123Z,14.00
2018-07-19T02:08:53.833Z,13.80
2018-07-19T02:11:58.666Z,13.50
2018-07-19T02:15:03.310Z,13.60
2018-07-19T02:18:08.148Z,13.80
2018-07-19T02:21:12.939Z,13.70
2018-07-19T02:24:17.652Z,13.50
2018-07-19T02:27:22.440Z,13.40
2018-07-19T02:30:27.148Z,13.60
2018-07-19T02:33:33.560Z,13.50
2018-07-19T02:36:38.499Z,13.70
2018-07-19T02:39:43.367Z,13.50
2018-07-19T02:42:48.218Z,13.50
2018-07-19T02:45:54.245Z,13.50
2018-07-19T02:48:59.080Z,13.40
2018-07-19T02:52:05.606Z,13.50
2018-07-19T02:55:12.170Z,13.40
2018-07-19T02:58:17.633Z,13.30
2018-07-19T03:01:22.461Z,13.30
2018-07-19T03:04:27.018Z,13.20
2018-07-19T03:07:31.711Z,13.20
2018-07-19T03:10:36.355Z,13.20
2018-07-19T03:13:41.018Z,13.00
2018-07-19T03:16:46.559Z,13.00
2018-07-19T03:19:52.009Z,12.90
2018-07-19T03:22:56.524Z,12.90
2018-07-19T03:26:00.952Z,12.90
2018-07-19T03:29:05.549Z,13.00
2018-07-19T03:32:10.149Z,13.20
2018-07-19T03:35:14.677Z,13.00
2018-07-19T03:38:19.304Z,13.10
2018-07-19T03:41:23.833Z,13.00
2018-07-19T03:44:28.662Z,12.90
2018-07-19T03:47:34.191Z,12.80
2018-07-19T03:50:43.863Z,12.80
2018-07-19T03:53:48.600Z,12.80
2018-07-19T03:56:53.294Z,12.70
2018-07-19T03:59:58.047Z,12.60
2018-07-19T04:03:02.773Z,12.90
2018-07-19T04:06:07.415Z,12.90
2018-07-19T04:09:12.132Z,12.60
2018-07-19T04:12:16.780Z,12.70
2018-07-19T04:15:22.146Z,12.70
2018-07-19T04:18:26.977Z,12.70
2018-07-19T04:21:31.932Z,12.70
2018-07-19T04:24:38.756Z,12.80
2018-07-19T04:27:43.595Z,12.90
2018-07-19T04:30:47.980Z,12.70
2018-07-19T04:33:52.332Z,12.60
2018-07-19T04:36:57.058Z,12.60
2018-07-19T04:40:01.495Z,12.60
2018-07-19T04:43:06.009Z,12.70
2018-07-19T04:46:10.581Z,13.10
2018-07-19T04:49:15.068Z,13.30
2018-07-19T04:52:19.546Z,13.20
2018-07-19T04:55:24.011Z,13.30
2018-07-19T04:58:28.512Z,13.60
2018-07-19T05:01:33.428Z,13.50
2018-07-19T05:04:37.893Z,13.70
2018-07-19T05:07:42.316Z,13.90
2018-07-19T05:10:47.929Z,13.90
2018-07-19T05:13:52.349Z,14.00
2018-07-19T05:16:56.768Z,14.00
2018-07-19T05:20:01.159Z,14.10
2018-07-19T05:23:05.864Z,14.30
2018-07-19T05:26:10.273Z,14.40
2018-07-19T05:29:14.788Z,14.50
2018-07-19T05:32:19.240Z,14.60
2018-07-19T05:35:23.963Z,14.70
2018-07-19T05:38:28.428Z,14.70
2018-07-19T05:41:33.495Z,15.00
2018-07-19T05:44:37.989Z,15.20
2018-07-19T05:47:42.439Z,15.20
2018-07-19T05:50:46.898Z,15.30
2018-07-19T05:53:51.414Z,15.40
2018-07-19T05:56:55.971Z,15.70
2018-07-19T06:00:00.563Z,16.00
2018-07-19T06:03:05.212Z,16.30
2018-07-19T06:06:09.806Z,16.70
2018-07-19T06:09:14.367Z,16.90
2018-07-19T06:12:18.904Z,17.20
2018-07-19T06:15:23.367Z,17.30
2018-07-19T06:18:27.826Z,17.50
2018-07-19T06:21:33.120Z,18.00
2018-07-19T06:24:37.677Z,19.10
2018-07-19T06:27:42.232Z,20.60
2018-07-19T06:30:46.603Z,22.60
2018-07-19T06:33:50.848Z,24.10
2018-07-19T06:36:55.151Z,25.80
2018-07-19T06:39:59.280Z,26.90
2018-07-19T06:43:04.038Z,28.10
2018-07-19T06:46:10.349Z,28.50
2018-07-19T06:49:15.533Z,29.70
2018-07-19T06:52:20.057Z,30.70
2018-07-19T06:55:24.492Z,28.50
2018-07-19T06:58:28.943Z,29.10
2018-07-19T07:01:33.964Z,29.00
2018-07-19T07:04:38.476Z,29.70
2018-07-19T07:07:42.993Z,30.50
2018-07-19T07:10:47.527Z,30.60
2018-07-19T07:13:51.998Z,30.00
2018-07-19T07:16:56.505Z,30.30
2018-07-19T07:20:01.075Z,30.30
2018-07-19T07:23:05.735Z,30.20
2018-07-19T07:26:10.243Z,32.00
2018-07-19T07:29:14.789Z,32.80
2018-07-19T07:32:19.249Z,32.50
2018-07-19T07:35:23.844Z,33.20
2018-07-19T07:38:28.291Z,34.00
2018-07-19T07:41:33.335Z,34.00
2018-07-19T07:44:38.151Z,33.40
2018-07-19T07:47:42.764Z,31.70
2018-07-19T07:50:47.220Z,31.30
2018-07-19T07:53:51.738Z,31.10
2018-07-19T07:56:56.273Z,32.10
2018-07-19T08:00:00.807Z,32.20
2018-07-19T08:03:05.349Z,32.20
2018-07-19T08:06:09.944Z,32.50
2018-07-19T08:09:14.833Z,32.30
2018-07-19T08:12:19.264Z,32.90
2018-07-19T08:15:23.832Z,32.40
2018-07-19T08:18:28.384Z,32.10
2018-07-19T08:21:33.121Z,32.60
2018-07-19T08:24:37.707Z,32.80
2018-07-19T08:27:42.121Z,31.40
2018-07-19T08:30:46.635Z,31.60
2018-07-19T08:33:51.170Z,30.80
2018-07-19T08:36:55.656Z,30.30
2018-07-19T08:40:00.235Z,32.40
2018-07-19T08:43:04.779Z,33.40
2018-07-19T08:46:09.239Z,33.40
2018-07-19T08:49:13.649Z,32.60
2018-07-19T08:52:18.634Z,30.60
2018-07-19T08:55:23.179Z,31.50
2018-07-19T08:58:27.680Z,31.90
2018-07-19T09:01:32.547Z,31.90
2018-07-19T09:04:37.139Z,31.40
2018-07-19T09:07:41.674Z,31.10
2018-07-19T09:10:46.260Z,31.50
2018-07-19T09:13:50.835Z,31.20
2018-07-19T09:16:55.445Z,30.90
2018-07-19T09:20:00.379Z,30.00
2018-07-19T09:23:05.210Z,30.60
2018-07-19T09:26:09.797Z,32.20
2018-07-19T09:29:14.270Z,32.40
2018-07-19T09:32:19.500Z,31.80
2018-07-19T09:35:23.941Z,31.30
2018-07-19T09:38:29.182Z,30.00
2018-07-19T09:41:34.516Z,30.90
2018-07-19T09:44:39.134Z,31.90
2018-07-19T09:47:43.656Z,32.80
2018-07-19T09:50:48.285Z,32.90
2018-07-19T09:53:52.886Z,31.60
2018-07-19T09:56:57.371Z,31.50
2018-07-19T10:00:02.628Z,30.50
2018-07-19T10:03:07.105Z,30.50
2018-07-19T10:06:11.579Z,30.30
2018-07-19T10:09:16.098Z,29.70
2018-07-19T10:12:20.888Z,30.40
2018-07-19T10:15:25.425Z,31.00
2018-07-19T10:18:29.996Z,31.30
2018-07-19T10:21:35.190Z,32.30
2018-07-19T10:24:39.615Z,32.60
2018-07-19T10:27:44.232Z,32.70
2018-07-19T10:30:48.801Z,31.90
2018-07-19T10:33:53.495Z,30.20
2018-07-19T10:36:58.034Z,31.40
2018-07-19T10:40:02.551Z,32.10
2018-07-19T10:43:07.206Z,30.80
2018-07-19T10:46:11.581Z,30.20
2018-07-19T10:49:16.080Z,29.90
2018-07-19T10:52:20.526Z,30.20
2018-07-19T10:55:25.089Z,31.30
2018-07-19T10:58:29.580Z,32.00
2018-07-19T11:01:34.176Z,32.00
2018-07-19T11:04:38.731Z,31.10
2018-07-19T11:07:43.246Z,30.80
2018-07-19T11:10:47.677Z,30.00
2018-07-19T11:13:52.344Z,29.60
2018-07-19T11:16:56.727Z,29.80
2018-07-19T11:20:01.092Z,29.90
2018-07-19T11:23:05.417Z,29.00
2018-07-19T11:26:09.589Z,28.90
2018-07-19T11:29:14.048Z,28.40
2018-07-19T11:32:18.434Z,28.90
2018-07-19T11:35:22.824Z,28.90
2018-07-19T11:38:27.204Z,29.00
2018-07-19T11:41:32.098Z,28.40
2018-07-19T11:44:36.282Z,28.00
2018-07-19T11:47:40.483Z,27.80
2018-07-19T11:50:44.828Z,27.90
2018-07-19T11:53:49.341Z,28.00
2018-07-19T11:56:53.764Z,28.20
2018-07-19T11:59:58.201Z,27.20
2018-07-19T12:03:02.656Z,26.80
2018-07-19T12:06:07.157Z,26.70
2018-07-19T12:09:12.122Z,26.50
2018-07-19T12:12:16.832Z,26.30
2018-07-19T12:15:21.774Z,26.00
2018-07-19T12:18:26.107Z,25.70
2018-07-19T12:21:30.582Z,26.00
2018-07-19T12:24:35.275Z,26.00
2018-07-19T12:27:39.722Z,26.10
2018-07-19T12:30:44.262Z,25.90
2018-07-19T12:33:48.699Z,25.70
2018-07-19T12:36:53.113Z,25.70
2018-07-19T12:39:58.289Z,25.90
2018-07-19T12:43:02.736Z,26.40
2018-07-19T12:46:07.133Z,26.60
2018-07-19T12:49:11.682Z,26.60
2018-07-19T12:52:16.276Z,26.30
2018-07-19T12:55:20.592Z,26.50
2018-07-19T12:58:25.153Z,26.40
2018-07-19T13:01:29.661Z,26.10
2018-07-19T13:04:34.123Z,26.30
2018-07-19T13:07:38.534Z,26.10
2018-07-19T13:10:43.085Z,26.00
2018-07-19T13:13:47.607Z,26.20
2018-07-19T13:16:52.339Z,26.30
2018-07-19T13:19:56.795Z,26.80
2018-07-19T13:23:01.045Z,26.70
2018-07-19T13:26:05.511Z,26.60
2018-07-19T13:29:09.768Z,26.20
2018-07-19T13:32:13.996Z,26.40
2018-07-19T13:35:18.364Z,26.70
2018-07-19T13:38:22.631Z,26.30
2018-07-19T13:41:26.959Z,26.50
2018-07-19T13:44:31.466Z,26.60
2018-07-19T13:47:35.924Z,26.80
2018-07-19T13:50:40.223Z,27.10
2018-07-19T13:53:55.549Z,27.20
2018-07-19T13:56:59.714Z,27.10
2018-07-19T14:00:04.201Z,26.50
2018-07-19T14:03:08.450Z,26.50
2018-07-19T14:06:13.099Z,26.50
2018-07-19T14:09:17.796Z,26.60
2018-07-19T14:12:22.299Z,26.30
2018-07-19T14:15:26.918Z,26.20
2018-07-19T14:18:31.645Z,26.30
2018-07-19T14:21:36.351Z,26.50
2018-07-19T14:24:40.944Z,26.80
2018-07-19T14:27:45.464Z,26.50
2018-07-19T14:30:50.002Z,26.50
2018-07-19T14:33:54.616Z,26.80
2018-07-19T14:36:59.105Z,26.90
2018-07-19T14:40:03.782Z,27.30
2018-07-19T14:43:08.327Z,27.10
2018-07-19T14:46:12.729Z,27.00
2018-07-19T14:49:17.346Z,26.90
2018-07-19T14:52:21.945Z,26.80
2018-07-19T14:55:26.439Z,27.00
2018-07-19T14:58:31.504Z,27.20
2018-07-19T15:01:36.006Z,27.30
2018-07-19T15:04:40.690Z,27.00
2018-07-19T15:07:45.427Z,27.00
2018-07-19T15:10:49.979Z,26.90
2018-07-19T15:13:54.513Z,27.10
2018-07-19T15:16:59.014Z,27.20
2018-07-19T15:20:03.480Z,27.20
2018-07-19T15:23:07.777Z,27.30
2018-07-19T15:26:12.270Z,27.40
2018-07-19T15:29:16.619Z,27.40
2018-07-19T15:32:21.012Z,27.20
2018-07-19T15:35:25.415Z,27.30
2018-07-19T15:38:29.723Z,27.30
2018-07-19T15:41:35.321Z,27.30
2018-07-19T15:44:39.783Z,27.30
2018-07-19T15:47:44.428Z,27.30
2018-07-19T15:50:48.713Z,27.20
2018-07-19T15:53:53.138Z,27.30
2018-07-19T15:56:57.439Z,27.20
2018-07-19T16:00:01.919Z,27.20
2018-07-19T16:03:06.450Z,27.20
2018-07-19T16:06:10.862Z,27.00
2018-07-19T16:09:15.212Z,27.10
2018-07-19T16:12:19.847Z,27.20
2018-07-19T16:15:24.315Z,27.10
2018-07-19T16:18:28.660Z,27.10
2018-07-19T16:21:34.300Z,27.10
2018-07-19T16:24:38.700Z,27.10
2018-07-19T16:27:43.437Z,27.00
2018-07-19T16:30:47.998Z,27.00
2018-07-19T16:33:52.314Z,27.00
2018-07-19T16:36:56.695Z,27.00
2018-07-19T16:40:00.998Z,27.00
2018-07-19T16:43:06.261Z,26.90
2018-07-19T16:46:10.648Z,26.90
2018-07-19T16:49:15.021Z,26.90
2018-07-19T16:52:19.368Z,26.80
2018-07-19T16:55:23.798Z,26.70
2018-07-19T16:58:28.159Z,26.70
2018-07-19T17:01:32.821Z,26.70
2018-07-19T17:04:37.179Z,26.70
2018-07-19T17:07:41.763Z,26.50
2018-07-19T17:10:46.100Z,26.50
2018-07-19T17:13:50.441Z,26.40
2018-07-19T17:16:55.198Z,26.50
2018-07-19T17:19:59.485Z,26.50
2018-07-19T17:23:03.753Z,26.40
2018-07-19T17:26:08.070Z,26.40
2018-07-19T17:29:12.248Z,26.40
2018-07-19T17:32:17.352Z,26.30
2018-07-19T17:35:21.850Z,26.20
2018-07-19T17:38:26.129Z,26.20
2018-07-19T17:41:30.301Z,26.10
2018-07-19T17:44:34.735Z,26.00
2018-07-19T17:47:38.942Z,25.90
2018-07-19T17:50:43.448Z,25.90
2018-07-19T17:53:47.954Z,25.90
2018-07-19T17:56:52.529Z,25.70
2018-07-19T17:59:56.878Z,25.70
2018-07-19T18:03:01.169Z,25.60
2018-07-19T18:06:05.441Z,25.50
2018-07-19T18:09:11.206Z,25.40
2018-07-19T18:12:15.527Z,25.40
2018-07-19T18:15:20.635Z,25.30
2018-07-19T18:18:24.967Z,25.30
2018-07-19T18:21:29.231Z,25.20
2018-07-19T18:24:33.534Z,25.00
2018-07-19T18:27:37.870Z,24.90
2018-07-19T18:30:42.092Z,24.80
2018-07-19T18:33:46.565Z,24.60
2018-07-19T18:36:51.790Z,24.50
2018-07-19T18:39:56.068Z,24.50
2018-07-19T18:43:00.359Z,24.40
2018-07-19T18:46:04.841Z,24.30
2018-07-19T18:49:09.109Z,24.20
2018-07-19T18:52:13.483Z,24.10
2018-07-19T18:55:17.771Z,24.00
2018-07-19T18:58:22.073Z,23.80
2018-07-19T19:01:27.046Z,23.70
2018-07-19T19:04:31.881Z,23.60
2018-07-19T19:07:36.592Z,23.50
2018-07-19T19:10:40.920Z,23.30
2018-07-19T19:13:45.338Z,23.20
2018-07-19T19:16:49.666Z,23.00
2018-07-19T19:19:53.993Z,22.80
2018-07-19T19:22:58.276Z,22.60
2018-07-19T19:26:03.135Z,22.40
2018-07-19T19:29:07.426Z,22.20
2018-07-19T19:32:11.753Z,22.00
2018-07-19T19:35:16.205Z,21.90
2018-07-19T19:38:20.581Z,21.70
2018-07-19T19:41:24.860Z,21.50
2018-07-19T19:48:01.146Z,21.20
2018-07-19T19:51:06.925Z,21.10
2018-07-19T19:54:11.230Z,20.90
2018-07-19T19:57:15.969Z,20.80
2018-07-19T20:00:21.177Z,20.60
2018-07-19T20:03:27.507Z,20.50
2018-07-19T20:06:32.180Z,20.50
2018-07-19T20:09:36.715Z,20.30
2018-07-19T20:12:41.212Z,20.30
2018-07-19T20:15:45.847Z,20.20
2018-07-19T20:18:50.521Z,20.10
2018-07-19T20:21:54.892Z,20.00
2018-07-19T20:24:59.229Z,19.90
2018-07-19T20:28:03.619Z,19.80
2018-07-19T20:31:08.151Z,19.80
2018-07-19T20:34:12.408Z,19.70
2018-07-19T20:37:16.974Z,19.70
2018-07-19T20:40:21.499Z,19.60
2018-07-19T20:43:25.917Z,19.40
2018-07-19T20:46:30.344Z,19.30
2018-07-19T20:49:34.758Z,19.20
2018-07-19T20:52:39.112Z,19.20
2018-07-19T20:55:43.891Z,19.10
2018-07-19T20:58:48.278Z,19.10
2018-07-19T21:01:52.587Z,18.90
2018-07-19T21:04:58.108Z,18.80
2018-07-19T21:08:02.526Z,18.80
2018-07-19T21:11:06.761Z,18.60
2018-07-19T21:14:11.663Z,18.60
2018-07-19T21:17:18.205Z,18.60
2018-07-19T21:20:23.568Z,18.60
2018-07-19T21:23:28.740Z,18.40
2018-07-19T21:26:33.384Z,18.30
2018-07-19T21:29:37.622Z,18.20
2018-07-19T21:32:43.000Z,18.20
2018-07-19T21:35:47.528Z,18.00
2018-07-19T21:38:52.199Z,17.90
2018-07-19T21:41:56.544Z,17.90
2018-07-19T21:45:00.807Z,18.00
2018-07-19T21:48:05.786Z,18.00
2018-07-19T21:51:10.489Z,18.00
2018-07-19T21:54:14.722Z,18.00
2018-07-19T21:57:20.438Z,17.80
2018-07-19T22:00:29.001Z,17.80
2018-07-19T22:03:35.332Z,17.80
2018-07-19T22:06:40.886Z,17.70
2018-07-19T22:09:47.688Z,17.70
2018-07-19T22:12:52.334Z,17.60
2018-07-19T22:15:58.663Z,17.60
2018-07-19T22:19:05.164Z,17.50
2018-07-19T22:22:10.713Z,17.40
2018-07-19T22:25:16.157Z,17.30
2018-07-19T22:28:27.928Z,17.40
2018-07-19T22:31:34.658Z,17.30
2018-07-19T22:34:45.510Z,17.20
2018-07-19T22:37:52.758Z,17.30
2018-07-19T22:41:00.543Z,17.30
2018-07-19T22:44:05.224Z,17.20
2018-07-19T22:53:30.879Z,17.00
2018-07-19T22:56:39.968Z,16.70
2018-07-19T22:59:49.349Z,16.50
2018-07-19T23:02:56.879Z,16.60
2018-07-19T23:06:09.576Z,16.50
2018-07-19T23:09:17.027Z,16.30
2018-07-19T23:12:21.888Z,16.20
2018-07-19T23:15:26.925Z,16.20
2018-07-19T23:18:33.663Z,16.30
2018-07-19T23:21:39.452Z,16.20
2018-07-19T23:24:53.702Z,16.20
2018-07-19T23:27:58.414Z,16.20
2018-07-19T23:31:03.371Z,16.00
2018-07-19T23:34:07.691Z,16.10
2018-07-19T23:37:16.311Z,15.90
2018-07-19T23:40:23.475Z,15.90
2018-07-19T23:43:31.358Z,15.80
2018-07-19T23:46:45.807Z,15.70
2018-07-19T23:49:50.080Z,15.60
2018-07-19T23:52:54.392Z,15.50
2018-07-19T23:55:58.669Z,15.70
2018-07-19T23:59:03.638Z,15.60
